KOWB/OWB METAR and TAF weather

Enter ICAO airport designator
Station Type Date Time Source
KOWB METAR 2022/12/04 10:56 UTC NOAA

KOWB 041056Z AUTO 00000KT 10SM CLR M03/M07 A3038 RMK AO2 SLP294 T10281067 PNO $


Station Type Date Time Source
KOWB Decoded METAR 2022/12/04 10:56 UTC NOAA

Owensboro, Owensboro-Daviess County Airport, KY, United States (KOWB) 37-44-24N 087-10-00W
Dec 04, 2022 - 05:56 AM EST / 2022.12.04 1056 UTC
Wind: Calm:0
Visibility: 10 mile(s):0
Sky conditions: clear
Temperature: 27.0 F (-2.8 C)
Dew Point: 19.9 F (-6.7 C)
Relative Humidity: 74%
Pressure (altimeter): 30.38 in. Hg (1028 hPa)
ob: KOWB 041056Z AUTO 00000KT 10SM CLR M03/M07 A3038 RMK AO2 SLP294 T10281067 PNO
cycle: 11

Station Type Date Time Source
KOWB TAF 2022/12/04 12:22 UTC NOAA

TAF KOWB 041120Z 0412/0512 VRB02KT P6SM BKN250
FM041700 VRB04KT P6SM FEW200
FM050100 VRB02KT P6SM SCT120

Example: see airport list